Time;durP1;ratioP1;P1;durP2;ratioP2;P2;SDS_P1;SDS_P2;PMS_P1;PMS_P2;Temp;Humidity;BMP_temperature;BMP_pressure;BME280_temperature;BME280_humidity;BME280_pressure;Samples;Min_cycle;Max_cycle;Signal;HPM_P1;HPM_P2
2023/07/28 00:01:52;;;;;;;1.15;1.00;;;;;;;17.22;100.00;97248.28;1223147;75;2921451;-67
2023/07/28 00:04:25;;;;;;;1.25;1.00;;;;;;;16.94;100.00;97236.97;1222140;75;2933119;-66
2023/07/28 00:06:58;;;;;;;1.60;1.35;;;;;;;17.14;100.00;97249.41;1223270;75;2922424;-64
2023/07/28 00:09:30;;;;;;;1.80;1.25;;;;;;;16.87;100.00;97245.88;1221692;75;2922575;-69
2023/07/28 00:12:07;;;;;;;1.50;1.30;;;;;;;17.14;100.00;97238.34;1223243;75;2933646;-68
2023/07/28 00:14:39;;;;;;;1.15;1.05;;;;;;;17.17;100.00;97232.53;1223761;75;2924388;-69
2023/07/28 00:17:12;;;;;;;0.80;0.80;;;;;;;17.23;100.00;97232.41;1222815;75;2947648;-66
2023/07/28 00:19:45;;;;;;;1.05;0.95;;;;;;;17.28;100.00;97228.78;1222814;75;2928905;-67
2023/07/28 00:22:17;;;;;;;1.25;0.80;;;;;;;17.24;100.00;97223.59;1222182;75;2931153;-65
2023/07/28 00:24:50;;;;;;;1.20;0.80;;;;;;;17.11;100.00;97223.56;1223447;75;2935910;-65
2023/07/28 00:27:25;;;;;;;1.35;1.20;;;;;;;16.92;100.00;97223.66;1223949;75;2915865;-65
2023/07/28 00:29:57;;;;;;;0.90;0.80;;;;;;;17.15;100.00;97224.00;1223401;75;2921270;-68
2023/07/28 00:32:30;;;;;;;0.70;0.70;;;;;;;17.19;100.00;97210.59;1221642;75;2928321;-68
2023/07/28 00:35:03;;;;;;;1.35;0.90;;;;;;;17.28;100.00;97208.69;1223540;75;2926613;-66
2023/07/28 00:37:36;;;;;;;0.80;0.80;;;;;;;17.27;100.00;97219.00;1222639;75;2929574;-68
2023/07/28 00:40:11;;;;;;;0.80;0.70;;;;;;;17.04;100.00;97211.13;1223056;75;2930570;-65
2023/07/28 00:42:46;;;;;;;0.85;0.80;;;;;;;17.11;100.00;97211.78;1223442;75;2927697;-69
2023/07/28 00:45:19;;;;;;;0.70;0.70;;;;;;;17.21;100.00;97213.56;1223690;75;2922859;-67
2023/07/28 00:47:52;;;;;;;0.95;0.70;;;;;;;17.23;100.00;97210.28;1223175;75;2928120;-66
2023/07/28 00:50:25;;;;;;;0.90;0.70;;;;;;;17.27;100.00;97207.19;1221940;75;2921347;-65
2023/07/28 00:52:58;;;;;;;0.70;0.70;;;;;;;17.17;100.00;97213.16;1222734;75;2924478;-70
2023/07/28 00:55:31;;;;;;;1.00;0.90;;;;;;;17.18;100.00;97203.56;1223112;75;2930920;-66
2023/07/28 00:58:06;;;;;;;1.05;0.60;;;;;;;17.15;100.00;97206.66;1222076;75;2946838;-66
2023/07/28 01:00:39;;;;;;;1.30;0.80;;;;;;;17.24;100.00;97200.69;1222232;75;2923070;-66
2023/07/28 01:03:12;;;;;;;1.05;0.80;;;;;;;17.14;100.00;97205.16;1222769;75;2927683;-67
2023/07/28 01:05:57;;;;;;;0.90;0.70;;;;;;;17.12;100.00;97214.00;1223221;75;2930056;-67
2023/07/28 01:08:36;;;;;;;0.85;0.70;;;;;;;17.10;100.00;97202.72;1222966;75;2930262;-66
2023/07/28 01:11:08;;;;;;;1.80;1.00;;;;;;;17.02;100.00;97215.69;1222492;75;2929142;-69
2023/07/28 01:13:44;;;;;;;1.65;1.00;;;;;;;17.02;100.00;97210.16;1223228;75;2926447;-65
2023/07/28 01:16:17;;;;;;;1.15;1.05;;;;;;;16.98;100.00;97201.44;1221676;75;2927254;-65
2023/07/28 01:18:49;;;;;;;1.75;1.30;;;;;;;16.72;100.00;97194.56;1223079;75;2924615;-67
2023/07/28 01:21:28;;;;;;;1.25;1.10;;;;;;;16.93;100.00;97205.03;1223177;75;2930401;-65
2023/07/28 01:24:15;;;;;;;1.50;1.00;;;;;;;16.93;100.00;97200.28;1222913;75;2936853;-69
2023/07/28 01:26:52;;;;;;;1.05;0.95;;;;;;;17.00;100.00;97198.88;1223174;75;2944048;-65
2023/07/28 01:29:25;;;;;;;1.20;1.00;;;;;;;16.93;100.00;97196.75;1223064;75;2922350;-67
2023/07/28 01:31:58;;;;;;;1.10;0.90;;;;;;;16.99;100.00;97200.16;1222806;75;2922905;-66
2023/07/28 01:34:30;;;;;;;0.80;0.80;;;;;;;16.91;100.00;97202.06;1223484;75;2924854;-64
2023/07/28 01:37:03;;;;;;;1.45;1.00;;;;;;;16.92;100.00;97209.09;1224144;75;2928160;-65
2023/07/28 01:39:36;;;;;;;1.30;1.20;;;;;;;16.95;100.00;97211.53;1223334;75;2935436;-64
2023/07/28 01:42:11;;;;;;;0.70;0.65;;;;;;;16.88;100.00;97208.66;1223042;75;2923289;-68
2023/07/28 01:44:44;;;;;;;1.05;0.80;;;;;;;16.88;100.00;97197.59;1222280;75;2937211;-65
2023/07/28 01:47:16;;;;;;;1.05;0.90;;;;;;;16.87;100.00;97196.13;1222867;75;2925686;-69
2023/07/28 01:49:49;;;;;;;0.80;0.80;;;;;;;16.70;100.00;97199.88;1223125;75;2926778;-66
2023/07/28 01:52:22;;;;;;;1.15;0.95;;;;;;;16.75;100.00;97204.56;1222884;75;2918594;-67
2023/07/28 01:54:55;;;;;;;1.25;0.95;;;;;;;16.75;100.00;97196.28;1223150;75;2930744;-66
2023/07/28 01:57:31;;;;;;;0.80;0.65;;;;;;;16.73;100.00;97192.56;1222283;75;2924088;-69
2023/07/28 02:00:04;;;;;;;0.80;0.70;;;;;;;16.73;100.00;97182.22;1223413;75;2923140;-70
2023/07/28 02:02:37;;;;;;;1.90;0.90;;;;;;;16.61;100.00;97187.22;1223132;75;2924867;-67
2023/07/28 02:05:11;;;;;;;0.75;0.70;;;;;;;16.53;100.00;97183.59;1223368;75;2918882;-71
2023/07/28 02:07:43;;;;;;;1.25;0.95;;;;;;;16.57;100.00;97191.53;1223651;75;2930978;-67
2023/07/28 02:10:16;;;;;;;0.50;0.50;;;;;;;16.51;100.00;97186.13;1221631;75;2927050;-65
2023/07/28 02:12:51;;;;;;;0.80;0.80;;;;;;;16.44;100.00;97195.03;1223435;75;2931590;-65
2023/07/28 02:15:24;;;;;;;1.10;0.90;;;;;;;16.48;100.00;97187.19;1187462;75;4881544;-65
2023/07/28 02:17:56;;;;;;;0.80;0.80;;;;;;;16.25;100.00;97189.53;1222583;75;2929098;-67
2023/07/28 02:20:29;;;;;;;1.20;1.00;;;;;;;16.32;100.00;97177.88;1223047;75;2920786;-65
2023/07/28 02:23:02;;;;;;;1.55;0.90;;;;;;;16.32;100.00;97193.72;1223205;75;2925221;-68
2023/07/28 02:25:34;;;;;;;0.65;0.65;;;;;;;16.27;100.00;97189.78;1222358;75;2933611;-68
2023/07/28 02:28:13;;;;;;;0.75;0.70;;;;;;;16.15;100.00;97180.91;1223040;75;2943085;-67
2023/07/28 02:30:45;;;;;;;0.70;0.60;;;;;;;16.16;100.00;97171.38;1222141;75;2937710;-71
2023/07/28 02:33:18;;;;;;;0.75;0.70;;;;;;;16.21;100.00;97169.03;1223703;75;2932602;-65
2023/07/28 02:35:50;;;;;;;1.00;0.80;;;;;;;16.11;100.00;97168.69;1223183;75;2926178;-69
2023/07/28 02:38:23;;;;;;;1.20;0.90;;;;;;;16.00;100.00;97179.91;1223422;75;2918588;-67
2023/07/28 02:40:56;;;;;;;0.70;0.60;;;;;;;16.04;100.00;97174.81;1222351;75;2934631;-64
2023/07/28 02:43:31;;;;;;;1.20;1.10;;;;;;;16.02;100.00;97185.63;1223113;83;2920538;-65
2023/07/28 02:46:04;;;;;;;1.45;1.05;;;;;;;15.98;100.00;97172.13;1223284;75;2927747;-67
2023/07/28 02:48:37;;;;;;;1.25;0.80;;;;;;;15.98;100.00;97180.41;1223794;75;2929099;-68
2023/07/28 02:51:09;;;;;;;1.00;0.80;;;;;;;15.93;100.00;97190.28;1223011;75;2938281;-67
2023/07/28 02:53:42;;;;;;;2.90;0.90;;;;;;;15.91;100.00;97195.56;1223683;75;2924967;-68
2023/07/28 02:56:15;;;;;;;1.00;0.90;;;;;;;15.67;100.00;97192.84;1223142;75;2926694;-65
2023/07/28 02:58:50;;;;;;;1.20;1.10;;;;;;;15.60;100.00;97183.16;1223259;75;2937529;-65
2023/07/28 03:01:22;;;;;;;1.00;0.90;;;;;;;15.43;100.00;97191.63;1223336;75;2921496;-68
2023/07/28 03:03:55;;;;;;;1.15;1.00;;;;;;;15.48;100.00;97199.09;1223497;75;2929310;-65
2023/07/28 03:06:28;;;;;;;2.00;1.05;;;;;;;15.38;100.00;97191.72;1222898;75;2927177;-65
2023/07/28 03:09:03;;;;;;;1.90;1.15;;;;;;;15.51;100.00;97197.31;1223015;75;2921246;-68
2023/07/28 03:11:35;;;;;;;1.55;1.25;;;;;;;15.43;100.00;97194.41;1222831;75;2924618;-66
2023/07/28 03:14:12;;;;;;;1.30;0.90;;;;;;;15.50;100.00;97190.31;1223177;75;2925430;-64
2023/07/28 03:16:46;;;;;;;1.20;0.75;;;;;;;15.49;100.00;97186.81;1222523;75;2923840;-67
2023/07/28 03:19:20;;;;;;;1.30;0.90;;;;;;;15.44;100.00;97195.91;1223224;75;2922222;-66
2023/07/28 03:21:53;;;;;;;0.75;0.75;;;;;;;15.41;100.00;97194.16;1222611;75;2929702;-67
2023/07/28 03:24:25;;;;;;;0.95;0.90;;;;;;;15.33;100.00;97198.78;1222770;75;2923065;-68
2023/07/28 03:26:58;;;;;;;0.95;0.80;;;;;;;15.20;100.00;97185.66;1222878;75;2921765;-67
2023/07/28 03:29:33;;;;;;;1.35;1.10;;;;;;;15.23;100.00;97189.38;1223168;75;2928995;-64
2023/07/28 03:32:06;;;;;;;1.65;1.20;;;;;;;15.32;100.00;97181.50;1220996;75;2936637;-64
2023/07/28 03:34:39;;;;;;;1.40;1.10;;;;;;;15.32;100.00;97183.50;1223279;75;2920889;-67
2023/07/28 03:37:11;;;;;;;0.95;0.90;;;;;;;15.01;100.00;97185.59;1222278;75;2934290;-66
2023/07/28 03:39:44;;;;;;;1.25;1.00;;;;;;;15.12;100.00;97193.75;1223771;75;2926725;-68
2023/07/28 03:42:17;;;;;;;2.50;1.00;;;;;;;15.07;100.00;97188.28;1222535;75;2937940;-66
2023/07/28 03:44:52;;;;;;;1.50;1.40;;;;;;;14.91;100.00;97192.72;1222414;75;2926970;-68
2023/07/28 03:47:25;;;;;;;1.30;1.10;;;;;;;15.09;100.00;97196.78;1221409;75;2935957;-67
2023/07/28 03:49:58;;;;;;;1.20;0.95;;;;;;;14.97;100.00;97198.19;1222158;75;2931874;-65
2023/07/28 03:52:30;;;;;;;1.10;0.85;;;;;;;14.64;100.00;97197.97;1222214;75;2923569;-68
2023/07/28 03:55:03;;;;;;;1.25;1.10;;;;;;;14.87;100.00;97195.75;1223139;75;2930663;-64
2023/07/28 03:57:35;;;;;;;1.70;1.30;;;;;;;14.50;100.00;97201.81;1222774;75;2923100;-67
2023/07/28 04:00:13;;;;;;;1.45;1.20;;;;;;;14.85;100.00;97190.00;1223280;75;2924741;-68
2023/07/28 04:02:46;;;;;;;1.00;0.90;;;;;;;14.79;100.00;97194.06;1222528;75;2927162;-66
2023/07/28 04:05:19;;;;;;;1.55;1.30;;;;;;;14.69;100.00;97190.91;1223158;75;2931989;-70
2023/07/28 04:07:51;;;;;;;1.85;1.40;;;;;;;14.54;100.00;97199.56;1223416;75;2932778;-68
2023/07/28 04:10:24;;;;;;;1.75;1.10;;;;;;;14.80;100.00;97198.34;1222439;75;2925273;-65
2023/07/28 04:12:56;;;;;;;1.50;1.20;;;;;;;14.83;100.00;97205.56;1223048;75;2923719;-68
2023/07/28 04:15:32;;;;;;;2.30;1.60;;;;;;;14.64;100.00;97208.25;1223099;75;2920609;-67
2023/07/28 04:18:04;;;;;;;1.50;1.40;;;;;;;14.82;100.00;97206.84;1222372;75;2933023;-67
2023/07/28 04:20:37;;;;;;;1.70;1.30;;;;;;;14.89;100.00;97198.00;1221786;75;2919802;-68
2023/07/28 04:23:09;;;;;;;7.20;5.20;;;;;;;14.84;100.00;97196.03;1223105;75;2936976;-66
2023/07/28 04:25:42;;;;;;;4.00;3.60;;;;;;;14.72;100.00;97200.16;1223137;75;2931540;-65
2023/07/28 04:28:14;;;;;;;5.90;4.50;;;;;;;14.89;100.00;97204.25;1222792;75;2926059;-66
2023/07/28 04:30:50;;;;;;;8.85;7.35;;;;;;;14.80;100.00;97209.38;1222476;75;2925834;-66
2023/07/28 04:33:23;;;;;;;5.45;4.60;;;;;;;14.52;100.00;97206.81;1221791;75;2941779;-65
2023/07/28 04:35:55;;;;;;;6.00;3.20;;;;;;;14.59;100.00;97203.53;1221845;75;2923814;-67
2023/07/28 04:38:29;;;;;;;3.10;2.30;;;;;;;14.77;100.00;97208.38;1211344;75;3802917;-63
2023/07/28 04:41:01;;;;;;;2.65;1.80;;;;;;;15.00;100.00;97202.66;1221193;75;2936519;-67
2023/07/28 04:43:34;;;;;;;2.40;1.55;;;;;;;14.72;100.00;97211.94;1223234;75;2933158;-67
2023/07/28 04:46:09;;;;;;;2.65;1.80;;;;;;;14.65;100.00;97218.03;1221557;75;2938030;-66
2023/07/28 04:48:42;;;;;;;2.65;1.95;;;;;;;14.75;100.00;97212.94;1220206;75;2958312;-66
2023/07/28 04:51:14;;;;;;;1.70;1.60;;;;;;;14.94;100.00;97210.25;1222172;75;2958233;-70
2023/07/28 04:53:47;;;;;;;2.80;2.20;;;;;;;14.81;100.00;97208.84;1223056;75;2926102;-67
2023/07/28 04:56:19;;;;;;;1.75;1.60;;;;;;;15.07;100.00;97210.34;1223508;75;2930072;-68
2023/07/28 04:58:52;;;;;;;4.85;2.30;;;;;;;14.94;100.00;97208.22;1223033;75;2950969;-67
2023/07/28 05:01:27;;;;;;;3.40;2.30;;;;;;;14.99;100.00;97212.19;1221598;75;2929460;-68
2023/07/28 05:04:00;;;;;;;2.55;2.05;;;;;;;15.12;100.00;97207.53;1222692;75;2931253;-67
2023/07/28 05:06:32;;;;;;;6.00;2.60;;;;;;;15.12;100.00;97202.00;1223249;75;2928684;-68
2023/07/28 05:09:05;;;;;;;2.50;1.95;;;;;;;15.31;100.00;97215.09;1222385;75;2936630;-67
2023/07/28 05:11:38;;;;;;;2.90;2.35;;;;;;;15.32;100.00;97219.34;1222455;75;2936256;-71
2023/07/28 05:14:13;;;;;;;3.00;2.50;;;;;;;15.26;100.00;97213.16;1209434;75;3916745;-69
2023/07/28 05:16:49;;;;;;;3.10;2.30;;;;;;;15.65;100.00;97209.94;1221692;75;2927216;-70
2023/07/28 05:19:22;;;;;;;4.20;2.55;;;;;;;15.53;100.00;97216.84;1222787;75;2928822;-70
2023/07/28 05:21:54;;;;;;;5.10;3.00;;;;;;;15.59;100.00;97227.84;1221170;75;2929344;-68
2023/07/28 05:24:27;;;;;;;3.60;2.65;;;;;;;15.74;100.00;97206.84;1222768;75;2928337;-69
2023/07/28 05:27:00;;;;;;;2.55;2.00;;;;;;;15.95;100.00;97220.88;1222912;75;2931942;-69
2023/07/28 05:29:32;;;;;;;2.85;2.25;;;;;;;15.94;100.00;97216.59;1222763;75;2924530;-67
2023/07/28 05:32:09;;;;;;;5.35;4.30;;;;;;;15.86;100.00;97214.97;1221854;75;2931734;-71
2023/07/28 05:34:45;;;;;;;4.30;3.05;;;;;;;16.16;100.00;97214.78;1223487;75;2935190;-67
2023/07/28 05:37:18;;;;;;;3.85;2.35;;;;;;;16.28;100.00;97210.59;1223670;75;2932608;-68
2023/07/28 05:39:50;;;;;;;3.40;2.50;;;;;;;16.25;100.00;97222.69;1223637;75;2922751;-67
2023/07/28 05:42:24;;;;;;;4.25;2.85;;;;;;;16.11;100.00;97219.13;1221492;75;2939792;-65
2023/07/28 05:44:56;;;;;;;2.80;1.90;;;;;;;16.50;100.00;97214.28;1222712;75;2933844;-68
2023/07/28 05:47:31;;;;;;;2.05;1.50;;;;;;;16.58;100.00;97212.41;1223428;75;2923929;-71
2023/07/28 05:50:04;;;;;;;2.95;2.10;;;;;;;16.75;100.00;97215.63;1224086;75;2927047;-67
2023/07/28 05:52:37;;;;;;;2.40;1.60;;;;;;;16.81;100.00;97210.00;1222577;75;2971943;-67
2023/07/28 05:55:11;;;;;;;2.25;1.85;;;;;;;16.88;100.00;97203.13;1223812;75;2926229;-69
2023/07/28 05:57:44;;;;;;;3.40;2.15;;;;;;;17.11;100.00;97203.47;1222937;75;2927267;-67
2023/07/28 06:00:18;;;;;;;3.55;1.90;;;;;;;17.12;100.00;97202.19;1222642;75;2924163;-65
2023/07/28 06:02:53;;;;;;;4.75;2.50;;;;;;;17.22;100.00;97198.47;1222638;75;2926987;-70
2023/07/28 06:05:26;;;;;;;2.65;2.05;;;;;;;17.38;100.00;97198.69;1223064;75;2931442;-71
2023/07/28 06:07:59;;;;;;;3.50;2.20;;;;;;;17.56;100.00;97200.59;1224382;75;2922354;-69
2023/07/28 06:10:31;;;;;;;2.45;1.75;;;;;;;17.79;100.00;97203.59;1223029;75;2928535;-68
2023/07/28 06:13:04;;;;;;;2.80;2.40;;;;;;;17.64;100.00;97209.72;1222394;75;2928000;-68
2023/07/28 06:15:37;;;;;;;3.75;2.95;;;;;;;17.74;100.00;97210.00;1222359;75;2963564;-66
2023/07/28 06:18:13;;;;;;;5.80;3.05;;;;;;;17.86;100.00;97216.09;1223768;75;2923774;-65
2023/07/28 06:20:46;;;;;;;3.75;2.85;;;;;;;17.95;100.00;97204.56;1222598;75;2928784;-69
2023/07/28 06:23:19;;;;;;;5.80;3.15;;;;;;;18.13;100.00;97216.00;1223441;75;2934432;-68
2023/07/28 06:25:51;;;;;;;8.00;5.25;;;;;;;18.30;100.00;97219.91;1223605;75;2924235;-68
2023/07/28 06:28:24;;;;;;;5.65;3.50;;;;;;;18.42;100.00;97220.38;1223018;75;2918544;-67
2023/07/28 06:30:58;;;;;;;5.05;2.85;;;;;;;18.65;100.00;97219.84;1222297;75;2933129;-66
2023/07/28 06:33:33;;;;;;;3.70;2.75;;;;;;;18.54;100.00;97226.38;1224021;75;2926948;-67
2023/07/28 06:36:06;;;;;;;5.10;3.15;;;;;;;18.63;100.00;97220.38;1222552;75;2924115;-68
2023/07/28 06:38:39;;;;;;;3.85;2.55;;;;;;;18.83;99.70;97224.47;1223356;75;2923791;-66
2023/07/28 06:41:11;;;;;;;4.55;2.85;;;;;;;18.84;100.00;97222.44;1223347;75;2922553;-68
2023/07/28 06:43:44;;;;;;;4.30;2.55;;;;;;;18.93;98.04;97219.91;1223299;75;2931572;-70
2023/07/28 06:46:17;;;;;;;4.60;3.00;;;;;;;19.14;95.65;97222.63;1222854;75;2925589;-69
2023/07/28 06:48:53;;;;;;;5.85;4.50;;;;;;;19.11;94.35;97217.44;1223090;75;2937827;-69
2023/07/28 06:51:26;;;;;;;5.35;4.05;;;;;;;19.43;93.95;97222.63;1223020;75;2921602;-71
2023/07/28 06:53:59;;;;;;;4.15;2.90;;;;;;;19.55;91.42;97228.59;1224000;75;2930967;-68
2023/07/28 06:56:31;;;;;;;5.50;3.10;;;;;;;19.37;93.71;97233.88;1223566;75;2926722;-69
2023/07/28 06:59:04;;;;;;;3.35;2.50;;;;;;;19.64;91.95;97230.13;1223684;75;2923752;-67
2023/07/28 07:01:37;;;;;;;4.20;2.85;;;;;;;19.43;95.85;97227.44;1222067;75;2931645;-67
2023/07/28 07:04:12;;;;;;;3.75;2.70;;;;;;;19.69;93.13;97216.13;1224238;75;2923080;-72
2023/07/28 07:06:45;;;;;;;3.70;2.65;;;;;;;19.61;93.40;97228.47;1223175;75;2920389;-68
2023/07/28 07:09:17;;;;;;;4.95;2.75;;;;;;;19.88;91.00;97226.94;1223076;75;2935884;-69
2023/07/28 07:11:52;;;;;;;5.40;3.45;;;;;;;19.99;91.56;97228.66;1223215;75;2925137;-68
2023/07/28 07:14:24;;;;;;;5.35;3.35;;;;;;;19.87;89.70;97231.00;1222490;75;2928325;-67
2023/07/28 07:16:57;;;;;;;4.35;2.60;;;;;;;19.98;88.07;97222.31;1223643;75;2927473;-65
2023/07/28 07:19:32;;;;;;;3.00;2.30;;;;;;;20.34;87.32;97213.16;1224400;75;2918311;-72
2023/07/28 07:22:05;;;;;;;3.45;2.65;;;;;;;20.85;85.06;97222.69;1222388;75;2920970;-68
2023/07/28 07:24:38;;;;;;;3.90;2.25;;;;;;;21.21;81.14;97225.25;1223153;75;2929199;-68
2023/07/28 07:27:11;;;;;;;3.65;2.50;;;;;;;20.85;83.73;97219.91;1223689;75;2927968;-67
2023/07/28 07:29:44;;;;;;;3.65;2.45;;;;;;;21.27;78.75;97220.22;1223041;75;2924659;-69
2023/07/28 07:32:17;;;;;;;3.90;2.65;;;;;;;21.26;77.92;97218.75;1222611;75;2925435;-67
2023/07/28 07:34:53;;;;;;;6.85;2.55;;;;;;;21.40;80.68;97221.34;1223616;75;2929959;-68
2023/07/28 07:37:25;;;;;;;4.60;2.85;;;;;;;21.43;78.47;97209.06;1223422;75;2925936;-71
2023/07/28 07:39:58;;;;;;;3.90;2.45;;;;;;;21.29;79.02;97197.41;1222685;75;2930122;-69
2023/07/28 07:42:43;;;;;;;8.10;2.60;;;;;;;21.45;78.48;97184.97;1222834;75;2930957;-66
2023/07/28 07:45:17;;;;;;;3.80;2.15;;;;;;;21.80;77.15;97198.38;1223167;75;2930822;-67
2023/07/28 07:47:49;;;;;;;3.40;2.50;;;;;;;21.99;75.38;97215.38;1223489;75;2928407;-70
2023/07/28 07:50:25;;;;;;;3.85;2.70;;;;;;;22.12;72.45;97203.97;1222828;75;2928941;-70
2023/07/28 07:52:57;;;;;;;3.80;2.50;;;;;;;22.01;75.28;97200.88;1222762;75;2925981;-69
2023/07/28 07:55:31;;;;;;;3.55;1.90;;;;;;;22.10;71.30;97200.25;1222787;75;2922739;-69
2023/07/28 07:58:04;;;;;;;2.40;1.90;;;;;;;22.29;69.13;97214.47;1223064;75;2925012;-66
2023/07/28 08:00:36;;;;;;;2.55;1.80;;;;;;;22.81;65.97;97205.56;1222350;75;2926966;-69
2023/07/28 08:03:10;;;;;;;2.30;1.85;;;;;;;22.80;64.66;97218.06;1223976;75;2923246;-69
2023/07/28 08:05:45;;;;;;;2.25;1.80;;;;;;;22.86;65.69;97212.97;1223038;75;2930111;-68
2023/07/28 08:08:19;;;;;;;2.95;1.70;;;;;;;23.24;66.16;97211.91;1222655;75;2924712;-68
2023/07/28 08:10:52;;;;;;;1.90;1.50;;;;;;;23.26;63.60;97209.28;1222968;75;2927994;-68
2023/07/28 08:13:25;;;;;;;2.60;1.90;;;;;;;23.00;64.79;97204.31;1222608;75;2926819;-65
2023/07/28 08:15:57;;;;;;;3.20;2.10;;;;;;;23.36;64.44;97204.53;1222834;75;2928339;-67
2023/07/28 08:18:30;;;;;;;2.65;2.00;;;;;;;23.33;64.35;97208.47;1224436;75;2923970;-70
2023/07/28 08:21:05;;;;;;;2.25;1.65;;;;;;;23.44;62.89;97212.06;1222793;75;2921388;-68
2023/07/28 08:23:38;;;;;;;2.55;1.70;;;;;;;23.95;61.64;97213.34;1223687;75;2927928;-67
2023/07/28 08:26:10;;;;;;;1.60;1.45;;;;;;;24.14;60.93;97226.72;1223502;75;2924589;-71
2023/07/28 08:28:43;;;;;;;2.55;1.85;;;;;;;23.96;61.96;97223.97;1223639;75;2924564;-69
2023/07/28 08:31:16;;;;;;;2.45;1.70;;;;;;;23.83;61.07;97215.94;1222542;75;2922165;-69
2023/07/28 08:33:48;;;;;;;2.90;1.90;;;;;;;24.05;60.48;97228.13;1223234;75;2921877;-68
2023/07/28 08:36:24;;;;;;;4.40;3.90;;;;;;;23.89;59.96;97230.41;1223500;75;2923668;-69
2023/07/28 08:38:58;;;;;;;3.50;2.10;;;;;;;24.15;61.97;97231.00;1223095;75;2924988;-66
2023/07/28 08:41:30;;;;;;;2.85;1.95;;;;;;;23.79;59.53;97224.00;1223661;75;2925348;-70
2023/07/28 08:44:03;;;;;;;1.65;1.45;;;;;;;24.12;59.16;97223.75;1223592;75;2926826;-65
2023/07/28 08:46:36;;;;;;;2.70;1.65;;;;;;;23.92;59.41;97220.84;1222124;75;2924509;-67
2023/07/28 08:49:08;;;;;;;2.60;1.75;;;;;;;24.02;59.66;97218.13;1223721;75;2925938;-68
2023/07/28 08:51:53;;;;;;;2.05;1.70;;;;;;;24.48;59.82;97213.97;1220842;75;3000186;-67
2023/07/28 08:54:26;;;;;;;2.00;1.75;;;;;;;24.57;57.82;97214.00;1223093;75;2926240;-66
2023/07/28 08:57:00;;;;;;;2.75;1.70;;;;;;;24.02;58.34;97215.31;1223531;75;2928697;-71
2023/07/28 08:59:35;;;;;;;3.75;2.15;;;;;;;24.50;57.77;97202.94;1223552;75;2926079;-68
2023/07/28 09:02:08;;;;;;;2.25;1.75;;;;;;;25.24;57.07;97200.81;1222507;75;2932505;-68
2023/07/28 09:04:40;;;;;;;2.05;1.60;;;;;;;25.35;57.46;97200.22;1223509;75;2924823;-70
2023/07/28 09:07:17;;;;;;;1.65;1.30;;;;;;;25.51;56.47;97203.47;1223757;75;2924937;-67
2023/07/28 09:09:51;;;;;;;2.85;1.65;;;;;;;25.45;57.57;97200.97;1223996;75;2926229;-67
2023/07/28 09:12:28;;;;;;;2.50;1.70;;;;;;;25.86;57.64;97208.78;1222350;75;2931762;-69
2023/07/28 09:15:01;;;;;;;3.10;1.65;;;;;;;25.46;57.14;97199.63;1223818;75;2930604;-72
2023/07/28 09:17:44;;;;;;;2.20;1.40;;;;;;;26.13;53.75;97186.88;1223425;75;2927924;-69
2023/07/28 09:20:19;;;;;;;1.90;1.70;;;;;;;26.23;53.39;97192.47;1222863;75;2924647;-67
2023/07/28 09:22:56;;;;;;;1.40;1.30;;;;;;;26.50;53.88;97197.09;1224012;75;2920488;-69
2023/07/28 09:25:31;;;;;;;2.10;1.40;;;;;;;26.03;52.74;97188.97;1224099;75;2917340;-67
2023/07/28 09:28:04;;;;;;;2.05;1.60;;;;;;;26.07;53.01;97180.84;1223256;75;2934085;-70
2023/07/28 09:30:51;;;;;;;1.95;1.40;;;;;;;26.77;53.78;97188.41;1222693;75;2932674;-68
2023/07/28 09:33:37;;;;;;;1.85;1.40;;;;;;;26.42;51.57;97188.84;1223179;75;2927481;-65
2023/07/28 09:36:13;;;;;;;2.25;1.50;;;;;;;26.76;51.29;97187.69;1222465;75;2923509;-69
2023/07/28 09:38:48;;;;;;;2.10;1.40;;;;;;;26.17;52.00;97194.09;1222505;75;2925970;-68
2023/07/28 09:41:21;;;;;;;1.80;1.50;;;;;;;26.73;51.90;97174.84;1222816;75;2935289;-66
2023/07/28 09:43:53;;;;;;;1.80;1.50;;;;;;;26.54;52.75;97175.69;1223317;75;2927995;-69
2023/07/28 09:46:31;;;;;;;1.55;1.25;;;;;;;27.19;52.63;97175.78;1222585;75;2918897;-71
2023/07/28 09:49:08;;;;;;;2.80;1.70;;;;;;;26.86;51.51;97170.03;1223206;75;2927242;-65
2023/07/28 09:51:44;;;;;;;1.50;1.30;;;;;;;26.86;52.62;97167.97;1222996;75;2932752;-69
2023/07/28 09:54:29;;;;;;;3.15;1.40;;;;;;;26.32;54.27;97165.72;1222128;75;2920909;-68
2023/07/28 09:57:02;;;;;;;2.20;1.55;;;;;;;26.92;54.10;97162.78;1223411;75;2933884;-67
2023/07/28 09:59:43;;;;;;;2.15;1.60;;;;;;;26.92;53.05;97157.16;1223342;75;2922702;-68
2023/07/28 10:02:16;;;;;;;5.75;1.50;;;;;;;27.21;53.08;97158.31;1223309;75;2933128;-67
2023/07/28 10:04:49;;;;;;;3.00;1.80;;;;;;;27.53;55.98;97157.59;1223059;75;2921720;-67
2023/07/28 10:07:22;;;;;;;3.60;1.60;;;;;;;26.51;55.75;97156.47;1223882;75;2922081;-67
2023/07/28 10:09:57;;;;;;;2.55;1.95;;;;;;;27.27;56.99;97153.81;1223371;75;2932729;-68
2023/07/28 10:12:30;;;;;;;1.80;1.70;;;;;;;26.71;57.67;97152.25;1223019;75;2922131;-67
2023/07/28 10:15:07;;;;;;;2.25;1.65;;;;;;;27.10;55.50;97156.88;1223797;75;2924581;-67
2023/07/28 10:17:40;;;;;;;1.80;1.50;;;;;;;27.38;55.18;97153.13;1224336;75;2926787;-73
2023/07/28 10:20:33;;;;;;;2.50;1.90;;;;;;;27.26;53.47;97157.97;1223745;75;2920068;-71
2023/07/28 10:23:16;;;;;;;4.30;1.80;;;;;;;27.56;54.09;97161.28;1223848;75;2924295;-66
2023/07/28 10:26:00;;;;;;;1.85;1.50;;;;;;;28.03;53.28;97167.06;1224361;75;2923668;-72
2023/07/28 10:28:38;;;;;;;1.90;1.65;;;;;;;27.76;52.17;97159.03;1224511;75;2922656;-66
2023/07/28 10:31:13;;;;;;;1.80;1.30;;;;;;;28.14;52.56;97155.09;1223274;75;2924802;-70
2023/07/28 10:33:48;;;;;;;1.55;1.40;;;;;;;28.21;51.87;97156.94;1223435;75;2925886;-71
2023/07/28 10:36:38;;;;;;;2.30;1.30;;;;;;;28.87;52.17;97144.69;1223902;75;2928947;-68
2023/07/28 10:39:19;;;;;;;1.65;1.10;;;;;;;29.52;50.68;97155.44;1223656;75;2924217;-69
2023/07/28 10:42:11;;;;;;;2.30;1.75;;;;;;;29.30;50.56;97152.81;1223623;75;2924603;-70
2023/07/28 10:44:44;;;;;;;3.00;1.65;;;;;;;29.04;49.25;97154.81;1223044;75;2929409;-70
2023/07/28 10:47:17;;;;;;;1.70;1.35;;;;;;;29.76;48.69;97158.91;1223226;75;2925672;-70
2023/07/28 10:49:51;;;;;;;1.40;1.30;;;;;;;30.17;47.63;97158.28;1222629;75;2925946;-71
2023/07/28 10:52:30;;;;;;;2.00;1.45;;;;;;;30.05;48.70;97149.91;1223400;75;2929767;-70
2023/07/28 10:55:03;;;;;;;2.15;1.60;;;;;;;29.62;49.50;97153.19;1223646;75;2923534;-68
2023/07/28 10:57:40;;;;;;;2.50;1.50;;;;;;;29.75;48.50;97151.06;1222663;75;2924757;-67
2023/07/28 11:00:15;;;;;;;2.40;1.70;;;;;;;29.32;47.85;97152.22;1223789;75;2922001;-73
2023/07/28 11:02:50;;;;;;;2.05;1.55;;;;;;;30.02;47.02;97147.56;1222600;75;2928305;-70
2023/07/28 11:05:25;;;;;;;2.20;1.60;;;;;;;30.32;46.34;97145.69;1223958;75;2924471;-68
2023/07/28 11:08:00;;;;;;;1.60;1.40;;;;;;;30.65;46.73;97144.56;1216369;75;3365270;-68
2023/07/28 11:10:35;;;;;;;3.60;1.75;;;;;;;29.67;48.67;97143.59;1223163;75;2927510;-70
2023/07/28 11:13:11;;;;;;;1.40;1.30;;;;;;;30.57;47.69;97134.31;1222492;75;2927747;-67
2023/07/28 11:15:44;;;;;;;2.15;1.65;;;;;;;30.27;47.24;97146.81;1223457;75;2932479;-70
2023/07/28 11:18:19;;;;;;;3.45;1.55;;;;;;;30.30;47.43;97148.41;1223442;75;2930716;-69
2023/07/28 11:20:52;;;;;;;1.55;1.45;;;;;;;29.84;48.19;97138.88;1222500;75;2933684;-68
2023/07/28 11:23:24;;;;;;;2.85;1.75;;;;;;;29.63;49.61;97145.44;1224068;75;2921254;-69
2023/07/28 11:25:57;;;;;;;1.90;1.70;;;;;;;29.53;50.01;97142.78;1223887;75;2922208;-69
2023/07/28 11:28:32;;;;;;;1.35;1.15;;;;;;;30.26;47.47;97139.69;1224410;75;2931592;-70
2023/07/28 11:31:06;;;;;;;3.15;1.50;;;;;;;30.74;46.76;97137.94;1224442;75;2924286;-70
2023/07/28 11:33:40;;;;;;;2.20;1.65;;;;;;;30.28;47.58;97137.00;1224573;75;2932510;-69
2023/07/28 11:36:12;;;;;;;1.95;1.40;;;;;;;30.97;45.93;97134.19;1224552;75;2928340;-69
2023/07/28 11:38:45;;;;;;;1.40;1.20;;;;;;;30.66;45.64;97143.91;1224652;75;2923969;-71
2023/07/28 11:41:19;;;;;;;2.50;1.30;;;;;;;30.41;45.44;97138.38;1224036;75;2933827;-71
2023/07/28 11:43:55;;;;;;;1.85;1.60;;;;;;;29.91;47.06;97143.47;1224235;75;2928545;-68